Morristown, AZ

3:09 PM MST on August 29, 2015 (GMT -0700)
Wittmann - 214th Ave and Wildflower | | Change Station
CLOSE
Current Station
Personal Weather Station
Location: Wittmann, AZ
Elevation: 1705 ft
Nearby Weather Stations

Elev 1705 ft 33.78 °N, 112.52 °W | Updated 1 second ago

Clear
Clear
106.7 °F
Feels Like 107 °F
N
2.0
Wind Variable Wind from NE
Gusts 12.0 mph

Today
High -- | Low -- °F
--% Chance of Precip.
Yesterday
High -- | Low -- °F
Precip. -- in
6:01 AM 7:00 PM
Full, 100% visible
Pressure 29.71 in
Visibility 10.0 miles
Clouds Clear
Heat Index 107 °F
Dew Point 57 °F
Humidity 20%
Rainfall 0.00 in
Snow Depth Not available.
UV 7 out of 12
Pollen 5.10 out of 12
Air Quality Not available.
Flu Activity Not available.
METAR KLUF 292158Z AUTO VRB02KT 10SM CLR 42/13 A2976 RMK AO2 SLP061 T04190125 $
Pressure 29.71 in
Visibility 10.0 miles
Clouds Clear
Heat Index 107 °F
Dew Point 57 °F
Humidity 20%
Rainfall 0.00 in
Snow Depth Not available.
UV 7 out of 12
Pollen 5.10 out of 12
Air Quality Not available.
Flu Activity Not available.
METAR KLUF 292158Z AUTO VRB02KT 10SM CLR 42/13 A2976 RMK AO2 SLP061 T04190125 $

10-Day Weather Forecast

×

Almanac

Astronomy

Aug. 29, 2015 Rise Set
Actual Time
Civil Twilight
Nautical Twilight
Astronomical Twilight
Moon
Length of Visible Light
Length of Day
Tomorrow will be .
, % of the Moon is Illuminated

Today's Extremes

State Highs State Lows

Community

WunderPhotos

Upload Photos

1,850,787 photos uploaded!

WunderBlogs® & News

Nearby

Air Quality

  Air Quality AQ Index Pollutant
Not available.

Snow Depth

Station Depth Elevation

Earthquake Activity

City Distance Mag. Time & Date
Minimum magnitude displayed is 2.5.

Coastal Water Temperatures

Place Temperature

Stations

Nearby Weather Stations

Station Location Temp. Windchill Dew Point Humidity Wind Precip. Elev Updated Type